sensor_id;sensor_type;location;lat;lon;timestamp;temperature;humidity
4962;DHT22;2496;52.468;13.342;2022-10-03T00:01:16;11.20;99.90
4962;DHT22;2496;52.468;13.342;2022-10-03T00:03:54;11.30;99.90
4962;DHT22;2496;52.468;13.342;2022-10-03T00:06:31;11.30;99.90
4962;DHT22;2496;52.468;13.342;2022-10-03T00:09:13;11.20;99.90
4962;DHT22;2496;52.468;13.342;2022-10-03T00:11:55;11.20;99.90
4962;DHT22;2496;52.468;13.342;2022-10-03T00:14:32;11.20;99.90
4962;DHT22;2496;52.468;13.342;2022-10-03T00:17:02;11.20;99.90
4962;DHT22;2496;52.468;13.342;2022-10-03T00:19:37;11.20;99.90
4962;DHT22;2496;52.468;13.342;2022-10-03T00:22:18;11.20;99.90
4962;DHT22;2496;52.468;13.342;2022-10-03T00:24:57;11.20;99.90
4962;DHT22;2496;52.468;13.342;2022-10-03T00:27:34;11.20;99.90
4962;DHT22;2496;52.468;13.342;2022-10-03T00:30:14;11.20;99.90
4962;DHT22;2496;52.468;13.342;2022-10-03T00:33:07;11.20;99.90
4962;DHT22;2496;52.468;13.342;2022-10-03T00:35:53;11.30;99.90
4962;DHT22;2496;52.468;13.342;2022-10-03T00:38:39;11.30;99.90
4962;DHT22;2496;52.468;13.342;2022-10-03T00:41:30;11.30;99.90
4962;DHT22;2496;52.468;13.342;2022-10-03T00:44:31;11.30;99.90
4962;DHT22;2496;52.468;13.342;2022-10-03T00:47:26;11.30;99.90
4962;DHT22;2496;52.468;13.342;2022-10-03T00:50:20;11.20;99.90
4962;DHT22;2496;52.468;13.342;2022-10-03T00:56:05;11.20;99.90
4962;DHT22;2496;52.468;13.342;2022-10-03T00:58:56;11.30;99.90
4962;DHT22;2496;52.468;13.342;2022-10-03T01:01:34;11.30;99.90
4962;DHT22;2496;52.468;13.342;2022-10-03T01:07:04;11.30;99.90
4962;DHT22;2496;52.468;13.342;2022-10-03T01:09:47;11.30;99.90
4962;DHT22;2496;52.468;13.342;2022-10-03T01:12:45;11.30;99.90
4962;DHT22;2496;52.468;13.342;2022-10-03T01:15:22;11.40;99.90
4962;DHT22;2496;52.468;13.342;2022-10-03T01:18:04;11.40;99.90
4962;DHT22;2496;52.468;13.342;2022-10-03T01:20:40;11.40;99.90
4962;DHT22;2496;52.468;13.342;2022-10-03T01:23:36;11.40;99.90
4962;DHT22;2496;52.468;13.342;2022-10-03T01:26:18;11.40;99.90
4962;DHT22;2496;52.468;13.342;2022-10-03T01:28:53;11.40;99.90
4962;DHT22;2496;52.468;13.342;2022-10-03T01:31:45;11.40;99.90
4962;DHT22;2496;52.468;13.342;2022-10-03T01:34:19;11.30;99.90
4962;DHT22;2496;52.468;13.342;2022-10-03T01:36:57;11.30;99.90
4962;DHT22;2496;52.468;13.342;2022-10-03T01:39:31;11.30;99.90
4962;DHT22;2496;52.468;13.342;2022-10-03T01:42:07;11.30;99.90
4962;DHT22;2496;52.468;13.342;2022-10-03T01:44:47;11.30;99.90
4962;DHT22;2496;52.468;13.342;2022-10-03T01:47:23;11.30;99.90
4962;DHT22;2496;52.468;13.342;2022-10-03T01:49:55;11.30;99.90
4962;DHT22;2496;52.468;13.342;2022-10-03T01:52:34;11.30;99.90
4962;DHT22;2496;52.468;13.342;2022-10-03T01:55:06;11.30;99.90
4962;DHT22;2496;52.468;13.342;2022-10-03T01:57:37;11.30;99.90
4962;DHT22;2496;52.468;13.342;2022-10-03T02:00:12;11.30;99.90
4962;DHT22;2496;52.468;13.342;2022-10-03T02:02:44;11.30;99.90
4962;DHT22;2496;52.468;13.342;2022-10-03T02:05:18;11.30;99.90
4962;DHT22;2496;52.468;13.342;2022-10-03T02:07:51;11.30;99.90
4962;DHT22;2496;52.468;13.342;2022-10-03T02:10:32;11.30;99.90
4962;DHT22;2496;52.468;13.342;2022-10-03T02:13:08;11.30;99.90
4962;DHT22;2496;52.468;13.342;2022-10-03T02:15:49;11.40;99.90
4962;DHT22;2496;52.468;13.342;2022-10-03T02:18:26;11.40;99.90
4962;DHT22;2496;52.468;13.342;2022-10-03T02:21:07;11.40;99.90
4962;DHT22;2496;52.468;13.342;2022-10-03T02:23:40;11.40;99.90
4962;DHT22;2496;52.468;13.342;2022-10-03T02:26:31;11.50;99.90
4962;DHT22;2496;52.468;13.342;2022-10-03T02:32:29;11.50;99.90
4962;DHT22;2496;52.468;13.342;2022-10-03T02:35:11;11.50;99.90
4962;DHT22;2496;52.468;13.342;2022-10-03T02:37:53;11.60;99.90
4962;DHT22;2496;52.468;13.342;2022-10-03T02:40:49;11.60;99.90
4962;DHT22;2496;52.468;13.342;2022-10-03T02:43:52;11.50;99.90
4962;DHT22;2496;52.468;13.342;2022-10-03T02:53:15;11.60;99.90
4962;DHT22;2496;52.468;13.342;2022-10-03T02:56:14;11.60;99.90
4962;DHT22;2496;52.468;13.342;2022-10-03T03:08:44;11.60;99.90
4962;DHT22;2496;52.468;13.342;2022-10-03T03:14:40;11.60;99.90
4962;DHT22;2496;52.468;13.342;2022-10-03T03:17:22;11.60;99.90
4962;DHT22;2496;52.468;13.342;2022-10-03T03:20:16;11.60;99.90
4962;DHT22;2496;52.468;13.342;2022-10-03T03:23:19;11.60;99.90
4962;DHT22;2496;52.468;13.342;2022-10-03T03:26:12;11.50;99.90
4962;DHT22;2496;52.468;13.342;2022-10-03T03:28:45;11.50;99.90
4962;DHT22;2496;52.468;13.342;2022-10-03T03:31:18;11.50;99.90
4962;DHT22;2496;52.468;13.342;2022-10-03T03:33:56;11.50;99.90
4962;DHT22;2496;52.468;13.342;2022-10-03T03:36:32;11.50;99.90
4962;DHT22;2496;52.468;13.342;2022-10-03T03:39:09;11.50;99.90
4962;DHT22;2496;52.468;13.342;2022-10-03T03:42:05;11.50;99.90
4962;DHT22;2496;52.468;13.342;2022-10-03T03:44:57;11.60;99.90
4962;DHT22;2496;52.468;13.342;2022-10-03T03:50:45;11.50;99.90
4962;DHT22;2496;52.468;13.342;2022-10-03T03:53:31;11.60;99.90
4962;DHT22;2496;52.468;13.342;2022-10-03T03:56:25;11.60;99.90
4962;DHT22;2496;52.468;13.342;2022-10-03T04:01:56;11.60;99.90
4962;DHT22;2496;52.468;13.342;2022-10-03T04:04:38;11.60;99.90
4962;DHT22;2496;52.468;13.342;2022-10-03T04:07:17;11.60;99.90
4962;DHT22;2496;52.468;13.342;2022-10-03T04:10:19;11.60;99.90
4962;DHT22;2496;52.468;13.342;2022-10-03T04:13:02;11.60;99.90
4962;DHT22;2496;52.468;13.342;2022-10-03T04:15:49;11.60;99.90
4962;DHT22;2496;52.468;13.342;2022-10-03T04:18:39;11.50;99.90
4962;DHT22;2496;52.468;13.342;2022-10-03T04:24:42;11.50;99.90
4962;DHT22;2496;52.468;13.342;2022-10-03T04:27:34;11.60;99.90
4962;DHT22;2496;52.468;13.342;2022-10-03T04:30:08;11.60;99.90
4962;DHT22;2496;52.468;13.342;2022-10-03T04:33:01;11.60;99.90
4962;DHT22;2496;52.468;13.342;2022-10-03T04:36:07;11.60;99.90
4962;DHT22;2496;52.468;13.342;2022-10-03T04:38:44;11.60;99.90
4962;DHT22;2496;52.468;13.342;2022-10-03T04:41:23;11.60;99.90
4962;DHT22;2496;52.468;13.342;2022-10-03T04:43:58;11.60;99.90
4962;DHT22;2496;52.468;13.342;2022-10-03T04:46:34;11.50;99.90
4962;DHT22;2496;52.468;13.342;2022-10-03T04:49:13;11.50;99.90
4962;DHT22;2496;52.468;13.342;2022-10-03T04:51:48;11.50;99.90
4962;DHT22;2496;52.468;13.342;2022-10-03T04:54:25;11.50;99.90
4962;DHT22;2496;52.468;13.342;2022-10-03T04:56:58;11.50;99.90
4962;DHT22;2496;52.468;13.342;2022-10-03T04:59:33;11.50;99.90
4962;DHT22;2496;52.468;13.342;2022-10-03T05:02:08;11.50;99.90
4962;DHT22;2496;52.468;13.342;2022-10-03T05:04:45;11.50;99.90
4962;DHT22;2496;52.468;13.342;2022-10-03T05:07:24;11.50;99.90
4962;DHT22;2496;52.468;13.342;2022-10-03T05:09:57;11.50;99.90
4962;DHT22;2496;52.468;13.342;2022-10-03T05:12:33;11.50;99.90
4962;DHT22;2496;52.468;13.342;2022-10-03T05:15:17;11.50;99.90
4962;DHT22;2496;52.468;13.342;2022-10-03T05:17:54;11.50;99.90
4962;DHT22;2496;52.468;13.342;2022-10-03T05:20:36;11.50;99.90
4962;DHT22;2496;52.468;13.342;2022-10-03T05:23:19;11.40;99.90
4962;DHT22;2496;52.468;13.342;2022-10-03T05:25:53;11.40;99.90
4962;DHT22;2496;52.468;13.342;2022-10-03T05:28:33;11.40;99.90
4962;DHT22;2496;52.468;13.342;2022-10-03T05:31:13;11.40;99.90
4962;DHT22;2496;52.468;13.342;2022-10-03T05:33:45;11.50;99.90
4962;DHT22;2496;52.468;13.342;2022-10-03T05:36:25;11.50;99.90
4962;DHT22;2496;52.468;13.342;2022-10-03T05:39:18;11.40;99.90
4962;DHT22;2496;52.468;13.342;2022-10-03T05:41:51;11.40;99.90
4962;DHT22;2496;52.468;13.342;2022-10-03T05:44:23;11.40;99.90
4962;DHT22;2496;52.468;13.342;2022-10-03T05:47:01;11.40;99.90
4962;DHT22;2496;52.468;13.342;2022-10-03T05:49:47;11.50;99.90
4962;DHT22;2496;52.468;13.342;2022-10-03T05:52:31;11.50;99.90
4962;DHT22;2496;52.468;13.342;2022-10-03T05:55:18;11.50;99.90
4962;DHT22;2496;52.468;13.342;2022-10-03T06:01:17;11.60;99.90
4962;DHT22;2496;52.468;13.342;2022-10-03T06:03:59;11.50;99.90
4962;DHT22;2496;52.468;13.342;2022-10-03T06:06:33;11.60;99.90
4962;DHT22;2496;52.468;13.342;2022-10-03T06:09:37;11.60;99.90
4962;DHT22;2496;52.468;13.342;2022-10-03T06:12:09;11.60;99.90
4962;DHT22;2496;52.468;13.342;2022-10-03T06:17:54;11.60;99.90
4962;DHT22;2496;52.468;13.342;2022-10-03T06:23:40;11.60;99.90
4962;DHT22;2496;52.468;13.342;2022-10-03T06:26:37;11.60;99.90
4962;DHT22;2496;52.468;13.342;2022-10-03T06:29:25;11.60;99.90
4962;DHT22;2496;52.468;13.342;2022-10-03T06:32:25;11.70;99.90
4962;DHT22;2496;52.468;13.342;2022-10-03T06:38:36;11.70;99.90
4962;DHT22;2496;52.468;13.342;2022-10-03T06:41:30;11.70;99.90
4962;DHT22;2496;52.468;13.342;2022-10-03T06:44:14;11.80;99.90
4962;DHT22;2496;52.468;13.342;2022-10-03T06:47:15;11.80;99.90
4962;DHT22;2496;52.468;13.342;2022-10-03T06:50:21;11.80;99.90
4962;DHT22;2496;52.468;13.342;2022-10-03T06:53:04;11.80;99.90
4962;DHT22;2496;52.468;13.342;2022-10-03T06:56:11;11.80;99.90
4962;DHT22;2496;52.468;13.342;2022-10-03T07:02:15;11.80;99.90
4962;DHT22;2496;52.468;13.342;2022-10-03T07:05:18;11.80;99.90
4962;DHT22;2496;52.468;13.342;2022-10-03T07:11:22;11.80;99.90
4962;DHT22;2496;52.468;13.342;2022-10-03T07:14:18;11.90;99.90
4962;DHT22;2496;52.468;13.342;2022-10-03T07:17:09;11.90;99.90
4962;DHT22;2496;52.468;13.342;2022-10-03T07:20:16;12.00;99.90
4962;DHT22;2496;52.468;13.342;2022-10-03T07:23:17;12.00;99.90
4962;DHT22;2496;52.468;13.342;2022-10-03T07:29:10;12.10;99.90
4962;DHT22;2496;52.468;13.342;2022-10-03T07:32:14;12.10;99.90
4962;DHT22;2496;52.468;13.342;2022-10-03T07:38:22;12.10;99.90
4962;DHT22;2496;52.468;13.342;2022-10-03T07:41:20;12.10;99.90
4962;DHT22;2496;52.468;13.342;2022-10-03T07:44:33;12.20;99.90
4962;DHT22;2496;52.468;13.342;2022-10-03T07:47:30;12.20;99.90
4962;DHT22;2496;52.468;13.342;2022-10-03T07:50:22;12.20;99.90
4962;DHT22;2496;52.468;13.342;2022-10-03T07:53:17;12.30;99.90
4962;DHT22;2496;52.468;13.342;2022-10-03T07:55:58;12.30;99.90
4962;DHT22;2496;52.468;13.342;2022-10-03T07:58:41;12.40;99.90
4962;DHT22;2496;52.468;13.342;2022-10-03T08:01:26;12.50;99.90
4962;DHT22;2496;52.468;13.342;2022-10-03T08:07:01;12.50;99.90
4962;DHT22;2496;52.468;13.342;2022-10-03T08:09:50;12.50;99.90
4962;DHT22;2496;52.468;13.342;2022-10-03T08:12:43;12.50;99.90
4962;DHT22;2496;52.468;13.342;2022-10-03T08:15:22;12.50;99.90
4962;DHT22;2496;52.468;13.342;2022-10-03T08:20:48;12.60;99.90
4962;DHT22;2496;52.468;13.342;2022-10-03T08:26:17;12.70;99.90
4962;DHT22;2496;52.468;13.342;2022-10-03T08:29:22;12.90;99.90
4962;DHT22;2496;52.468;13.342;2022-10-03T08:32:22;13.00;99.90
4962;DHT22;2496;52.468;13.342;2022-10-03T08:35:26;13.10;99.90
4962;DHT22;2496;52.468;13.342;2022-10-03T08:42:01;13.20;99.90
4962;DHT22;2496;52.468;13.342;2022-10-03T08:44:54;13.30;99.90
4962;DHT22;2496;52.468;13.342;2022-10-03T08:47:57;13.30;99.90
4962;DHT22;2496;52.468;13.342;2022-10-03T08:53:58;13.50;99.90
4962;DHT22;2496;52.468;13.342;2022-10-03T08:56:39;13.60;99.90
4962;DHT22;2496;52.468;13.342;2022-10-03T09:02:54;13.70;99.90
4962;DHT22;2496;52.468;13.342;2022-10-03T09:08:44;13.70;99.90
4962;DHT22;2496;52.468;13.342;2022-10-03T09:11:48;13.70;99.90
4962;DHT22;2496;52.468;13.342;2022-10-03T09:14:45;13.70;99.90
4962;DHT22;2496;52.468;13.342;2022-10-03T09:17:48;13.70;99.90
4962;DHT22;2496;52.468;13.342;2022-10-03T09:20:52;13.80;99.90
4962;DHT22;2496;52.468;13.342;2022-10-03T09:23:50;13.80;99.90
4962;DHT22;2496;52.468;13.342;2022-10-03T09:26:53;13.70;99.90
4962;DHT22;2496;52.468;13.342;2022-10-03T09:29:44;13.60;99.90
4962;DHT22;2496;52.468;13.342;2022-10-03T09:32:58;13.60;99.90
4962;DHT22;2496;52.468;13.342;2022-10-03T09:35:53;13.60;99.90
4962;DHT22;2496;52.468;13.342;2022-10-03T09:38:44;13.70;99.90
4962;DHT22;2496;52.468;13.342;2022-10-03T09:41:32;13.80;99.90
4962;DHT22;2496;52.468;13.342;2022-10-03T09:44:38;13.80;99.90
4962;DHT22;2496;52.468;13.342;2022-10-03T09:47:34;13.90;99.90
4962;DHT22;2496;52.468;13.342;2022-10-03T09:50:50;14.00;99.90
4962;DHT22;2496;52.468;13.342;2022-10-03T09:53:52;13.90;99.90
4962;DHT22;2496;52.468;13.342;2022-10-03T09:57:04;13.90;99.90
4962;DHT22;2496;52.468;13.342;2022-10-03T10:05:50;14.00;99.90
4962;DHT22;2496;52.468;13.342;2022-10-03T10:11:26;14.00;99.90
4962;DHT22;2496;52.468;13.342;2022-10-03T10:14:18;14.00;99.90
4962;DHT22;2496;52.468;13.342;2022-10-03T10:17:32;13.90;99.90
4962;DHT22;2496;52.468;13.342;2022-10-03T10:20:23;13.90;99.90
4962;DHT22;2496;52.468;13.342;2022-10-03T10:23:07;14.00;99.90
4962;DHT22;2496;52.468;13.342;2022-10-03T10:26:07;14.10;99.90
4962;DHT22;2496;52.468;13.342;2022-10-03T10:29:23;14.20;99.90
4962;DHT22;2496;52.468;13.342;2022-10-03T10:38:26;14.80;99.90
4962;DHT22;2496;52.468;13.342;2022-10-03T10:41:32;14.90;99.90
4962;DHT22;2496;52.468;13.342;2022-10-03T10:44:46;15.00;99.90
4962;DHT22;2496;52.468;13.342;2022-10-03T10:50:49;15.20;99.90
4962;DHT22;2496;52.468;13.342;2022-10-03T11:06:36;15.30;99.90
4962;DHT22;2496;52.468;13.342;2022-10-03T11:12:48;15.20;99.90
4962;DHT22;2496;52.468;13.342;2022-10-03T11:25:24;15.10;99.90
4962;DHT22;2496;52.468;13.342;2022-10-03T11:28:43;15.20;99.90
4962;DHT22;2496;52.468;13.342;2022-10-03T11:32:08;15.20;99.90
4962;DHT22;2496;52.468;13.342;2022-10-03T11:35:11;15.20;99.90
4962;DHT22;2496;52.468;13.342;2022-10-03T11:37:45;15.20;99.90
4962;DHT22;2496;52.468;13.342;2022-10-03T11:40:26;15.30;99.90
4962;DHT22;2496;52.468;13.342;2022-10-03T11:43:17;15.30;99.90
4962;DHT22;2496;52.468;13.342;2022-10-03T11:45:50;15.40;99.90
4962;DHT22;2496;52.468;13.342;2022-10-03T11:48:37;15.30;99.90
4962;DHT22;2496;52.468;13.342;2022-10-03T11:51:09;15.30;99.90
4962;DHT22;2496;52.468;13.342;2022-10-03T11:53:49;15.30;99.90
4962;DHT22;2496;52.468;13.342;2022-10-03T11:56:32;15.30;99.90
4962;DHT22;2496;52.468;13.342;2022-10-03T11:59:24;15.20;99.90
4962;DHT22;2496;52.468;13.342;2022-10-03T12:02:11;15.10;99.90
4962;DHT22;2496;52.468;13.342;2022-10-03T12:04:51;15.20;99.90
4962;DHT22;2496;52.468;13.342;2022-10-03T12:07:37;15.20;99.90
4962;DHT22;2496;52.468;13.342;2022-10-03T12:10:40;15.20;99.90
4962;DHT22;2496;52.468;13.342;2022-10-03T12:13:12;15.20;99.90
4962;DHT22;2496;52.468;13.342;2022-10-03T12:15:44;15.10;99.90
4962;DHT22;2496;52.468;13.342;2022-10-03T12:18:16;15.10;99.90
4962;DHT22;2496;52.468;13.342;2022-10-03T12:21:02;15.00;99.90
4962;DHT22;2496;52.468;13.342;2022-10-03T12:23:53;15.00;99.90
4962;DHT22;2496;52.468;13.342;2022-10-03T12:26:29;15.00;99.90
4962;DHT22;2496;52.468;13.342;2022-10-03T12:28:59;15.10;99.90
4962;DHT22;2496;52.468;13.342;2022-10-03T12:31:33;15.30;99.90
4962;DHT22;2496;52.468;13.342;2022-10-03T12:34:14;15.40;99.90
4962;DHT22;2496;52.468;13.342;2022-10-03T12:36:50;15.50;99.90
4962;DHT22;2496;52.468;13.342;2022-10-03T12:39:31;15.60;99.90
4962;DHT22;2496;52.468;13.342;2022-10-03T12:42:15;15.60;99.90
4962;DHT22;2496;52.468;13.342;2022-10-03T12:44:51;15.50;99.90
4962;DHT22;2496;52.468;13.342;2022-10-03T12:47:32;15.50;99.90
4962;DHT22;2496;52.468;13.342;2022-10-03T12:50:10;15.50;99.90
4962;DHT22;2496;52.468;13.342;2022-10-03T12:52:45;15.50;99.90
4962;DHT22;2496;52.468;13.342;2022-10-03T12:55:24;15.50;99.90
4962;DHT22;2496;52.468;13.342;2022-10-03T12:57:59;15.60;99.90
4962;DHT22;2496;52.468;13.342;2022-10-03T13:00:34;15.60;99.90
4962;DHT22;2496;52.468;13.342;2022-10-03T13:03:18;15.60;99.90
4962;DHT22;2496;52.468;13.342;2022-10-03T13:05:55;15.60;99.90
4962;DHT22;2496;52.468;13.342;2022-10-03T13:08:41;15.50;99.90
4962;DHT22;2496;52.468;13.342;2022-10-03T13:11:23;15.50;99.90
4962;DHT22;2496;52.468;13.342;2022-10-03T13:14:04;15.60;99.90
4962;DHT22;2496;52.468;13.342;2022-10-03T13:16:35;15.60;99.90
4962;DHT22;2496;52.468;13.342;2022-10-03T13:19:10;15.70;99.90
4962;DHT22;2496;52.468;13.342;2022-10-03T13:21:52;15.70;99.90
4962;DHT22;2496;52.468;13.342;2022-10-03T13:24:32;15.70;99.90
4962;DHT22;2496;52.468;13.342;2022-10-03T13:30:03;15.70;99.90
4962;DHT22;2496;52.468;13.342;2022-10-03T13:32:33;15.70;99.90
4962;DHT22;2496;52.468;13.342;2022-10-03T13:35:12;15.70;99.90
4962;DHT22;2496;52.468;13.342;2022-10-03T13:38:27;15.80;99.90
4962;DHT22;2496;52.468;13.342;2022-10-03T13:41:04;15.90;99.90
4962;DHT22;2496;52.468;13.342;2022-10-03T13:43:37;15.90;99.90
4962;DHT22;2496;52.468;13.342;2022-10-03T13:46:12;15.90;99.90
4962;DHT22;2496;52.468;13.342;2022-10-03T13:48:43;15.90;99.90
4962;DHT22;2496;52.468;13.342;2022-10-03T13:51:20;15.90;99.90
4962;DHT22;2496;52.468;13.342;2022-10-03T13:53:56;15.80;99.90
4962;DHT22;2496;52.468;13.342;2022-10-03T13:56:45;15.80;99.90
4962;DHT22;2496;52.468;13.342;2022-10-03T13:59:30;15.80;99.90
4962;DHT22;2496;52.468;13.342;2022-10-03T14:02:09;15.90;99.90
4962;DHT22;2496;52.468;13.342;2022-10-03T14:04:53;15.80;99.90
4962;DHT22;2496;52.468;13.342;2022-10-03T14:07:30;15.80;99.90
4962;DHT22;2496;52.468;13.342;2022-10-03T14:10:18;15.70;99.90
4962;DHT22;2496;52.468;13.342;2022-10-03T14:12:57;15.70;99.90
4962;DHT22;2496;52.468;13.342;2022-10-03T14:15:45;15.60;99.90
4962;DHT22;2496;52.468;13.342;2022-10-03T14:18:29;15.50;99.90
4962;DHT22;2496;52.468;13.342;2022-10-03T14:21:21;15.40;99.90
4962;DHT22;2496;52.468;13.342;2022-10-03T14:23:57;15.30;99.90
4962;DHT22;2496;52.468;13.342;2022-10-03T14:26:30;15.30;99.90
4962;DHT22;2496;52.468;13.342;2022-10-03T14:29:04;15.30;99.90
4962;DHT22;2496;52.468;13.342;2022-10-03T14:31:38;15.30;99.90
4962;DHT22;2496;52.468;13.342;2022-10-03T14:35:40;15.30;99.90
4962;DHT22;2496;52.468;13.342;2022-10-03T14:41:29;15.30;99.90
4962;DHT22;2496;52.468;13.342;2022-10-03T14:44:01;15.30;99.90
4962;DHT22;2496;52.468;13.342;2022-10-03T14:46:33;15.30;99.90
4962;DHT22;2496;52.468;13.342;2022-10-03T14:49:04;15.40;99.90
4962;DHT22;2496;52.468;13.342;2022-10-03T14:51:37;15.40;99.90
4962;DHT22;2496;52.468;13.342;2022-10-03T14:54:15;15.40;99.90
4962;DHT22;2496;52.468;13.342;2022-10-03T14:56:44;15.30;99.90
4962;DHT22;2496;52.468;13.342;2022-10-03T14:59:17;15.30;99.90
4962;DHT22;2496;52.468;13.342;2022-10-03T15:01:49;15.30;99.90
4962;DHT22;2496;52.468;13.342;2022-10-03T15:04:24;15.30;99.90
4962;DHT22;2496;52.468;13.342;2022-10-03T15:06:55;15.30;99.90
4962;DHT22;2496;52.468;13.342;2022-10-03T15:09:32;15.30;99.90
4962;DHT22;2496;52.468;13.342;2022-10-03T15:12:09;15.30;99.90
4962;DHT22;2496;52.468;13.342;2022-10-03T15:14:41;15.20;99.90
4962;DHT22;2496;52.468;13.342;2022-10-03T15:17:18;15.20;99.90
4962;DHT22;2496;52.468;13.342;2022-10-03T15:19:50;15.20;99.90
4962;DHT22;2496;52.468;13.342;2022-10-03T15:22:31;15.20;99.90
4962;DHT22;2496;52.468;13.342;2022-10-03T15:25:06;15.30;99.90
4962;DHT22;2496;52.468;13.342;2022-10-03T15:27:40;15.30;99.90
4962;DHT22;2496;52.468;13.342;2022-10-03T15:30:19;15.30;99.90
4962;DHT22;2496;52.468;13.342;2022-10-03T15:32:50;15.30;99.90
4962;DHT22;2496;52.468;13.342;2022-10-03T15:35:25;15.30;99.90
4962;DHT22;2496;52.468;13.342;2022-10-03T15:38:08;15.30;99.90
4962;DHT22;2496;52.468;13.342;2022-10-03T15:40:47;15.20;99.90
4962;DHT22;2496;52.468;13.342;2022-10-03T15:43:30;15.20;99.90
4962;DHT22;2496;52.468;13.342;2022-10-03T15:46:02;15.20;99.90
4962;DHT22;2496;52.468;13.342;2022-10-03T15:48:33;15.20;99.90
4962;DHT22;2496;52.468;13.342;2022-10-03T15:51:15;15.20;99.90
4962;DHT22;2496;52.468;13.342;2022-10-03T15:53:47;15.20;99.90
4962;DHT22;2496;52.468;13.342;2022-10-03T15:56:19;15.10;99.90
4962;DHT22;2496;52.468;13.342;2022-10-03T15:58:50;15.10;99.90
4962;DHT22;2496;52.468;13.342;2022-10-03T16:01:21;15.10;99.90
4962;DHT22;2496;52.468;13.342;2022-10-03T16:03:53;15.10;99.90
4962;DHT22;2496;52.468;13.342;2022-10-03T16:06:24;15.10;99.90
4962;DHT22;2496;52.468;13.342;2022-10-03T16:08:59;15.10;99.90
4962;DHT22;2496;52.468;13.342;2022-10-03T16:11:28;15.10;99.90
4962;DHT22;2496;52.468;13.342;2022-10-03T16:14:10;15.00;99.90
4962;DHT22;2496;52.468;13.342;2022-10-03T16:16:41;15.00;99.90
4962;DHT22;2496;52.468;13.342;2022-10-03T16:19:28;15.00;99.90
4962;DHT22;2496;52.468;13.342;2022-10-03T16:22:09;15.00;99.90
4962;DHT22;2496;52.468;13.342;2022-10-03T16:24:45;15.00;99.90
4962;DHT22;2496;52.468;13.342;2022-10-03T16:27:17;14.90;99.90
4962;DHT22;2496;52.468;13.342;2022-10-03T16:29:52;14.90;99.90
4962;DHT22;2496;52.468;13.342;2022-10-03T16:32:22;14.90;99.90
4962;DHT22;2496;52.468;13.342;2022-10-03T16:34:50;14.90;99.90
4962;DHT22;2496;52.468;13.342;2022-10-03T16:37:20;14.90;99.90
4962;DHT22;2496;52.468;13.342;2022-10-03T16:39:56;15.00;99.90
4962;DHT22;2496;52.468;13.342;2022-10-03T16:42:26;14.90;99.90
4962;DHT22;2496;52.468;13.342;2022-10-03T16:44:57;14.90;99.90
4962;DHT22;2496;52.468;13.342;2022-10-03T16:47:35;14.80;99.90
4962;DHT22;2496;52.468;13.342;2022-10-03T16:50:18;14.80;99.90
4962;DHT22;2496;52.468;13.342;2022-10-03T16:52:51;14.80;99.90
4962;DHT22;2496;52.468;13.342;2022-10-03T16:55:24;14.70;99.90
4962;DHT22;2496;52.468;13.342;2022-10-03T16:57:55;14.70;99.90
4962;DHT22;2496;52.468;13.342;2022-10-03T17:00:25;14.70;99.90
4962;DHT22;2496;52.468;13.342;2022-10-03T17:02:55;14.60;99.90
4962;DHT22;2496;52.468;13.342;2022-10-03T17:05:22;14.60;99.90
4962;DHT22;2496;52.468;13.342;2022-10-03T17:07:51;14.60;99.90
4962;DHT22;2496;52.468;13.342;2022-10-03T17:10:31;14.60;99.90
4962;DHT22;2496;52.468;13.342;2022-10-03T17:13:01;14.50;99.90
4962;DHT22;2496;52.468;13.342;2022-10-03T17:15:31;14.50;99.90
4962;DHT22;2496;52.468;13.342;2022-10-03T17:18:10;14.40;99.90
4962;DHT22;2496;52.468;13.342;2022-10-03T17:20:44;14.40;99.90
4962;DHT22;2496;52.468;13.342;2022-10-03T17:23:28;14.40;99.90
4962;DHT22;2496;52.468;13.342;2022-10-03T17:26:05;14.30;99.90
4962;DHT22;2496;52.468;13.342;2022-10-03T17:28:41;14.30;99.90
4962;DHT22;2496;52.468;13.342;2022-10-03T17:31:23;14.30;99.90
4962;DHT22;2496;52.468;13.342;2022-10-03T17:33:56;14.30;99.90
4962;DHT22;2496;52.468;13.342;2022-10-03T17:37:02;14.20;99.90
4962;DHT22;2496;52.468;13.342;2022-10-03T17:39:42;14.20;99.90
4962;DHT22;2496;52.468;13.342;2022-10-03T17:42:29;14.20;99.90
4962;DHT22;2496;52.468;13.342;2022-10-03T17:45:07;14.20;99.90
4962;DHT22;2496;52.468;13.342;2022-10-03T17:47:46;14.10;99.90
4962;DHT22;2496;52.468;13.342;2022-10-03T17:50:18;14.10;99.90
4962;DHT22;2496;52.468;13.342;2022-10-03T17:52:48;14.10;99.90
4962;DHT22;2496;52.468;13.342;2022-10-03T17:55:20;14.10;99.90
4962;DHT22;2496;52.468;13.342;2022-10-03T17:57:51;14.10;99.90
4962;DHT22;2496;52.468;13.342;2022-10-03T18:00:21;14.10;99.90
4962;DHT22;2496;52.468;13.342;2022-10-03T18:02:55;14.00;99.90
4962;DHT22;2496;52.468;13.342;2022-10-03T18:05:27;14.00;99.90
4962;DHT22;2496;52.468;13.342;2022-10-03T18:07:55;14.00;99.90
4962;DHT22;2496;52.468;13.342;2022-10-03T18:10:29;14.00;99.90
4962;DHT22;2496;52.468;13.342;2022-10-03T18:13:00;14.00;99.90
4962;DHT22;2496;52.468;13.342;2022-10-03T18:15:49;14.00;99.90
4962;DHT22;2496;52.468;13.342;2022-10-03T18:18:51;13.90;99.90
4962;DHT22;2496;52.468;13.342;2022-10-03T18:21:37;13.90;99.90
4962;DHT22;2496;52.468;13.342;2022-10-03T18:30:22;13.80;99.90
4962;DHT22;2496;52.468;13.342;2022-10-03T18:32:53;13.80;99.90
4962;DHT22;2496;52.468;13.342;2022-10-03T18:35:28;13.80;99.90
4962;DHT22;2496;52.468;13.342;2022-10-03T18:38:09;13.70;99.90
4962;DHT22;2496;52.468;13.342;2022-10-03T18:40:47;13.70;99.90
4962;DHT22;2496;52.468;13.342;2022-10-03T18:43:27;13.70;99.90
4962;DHT22;2496;52.468;13.342;2022-10-03T18:46:04;13.70;99.90
4962;DHT22;2496;52.468;13.342;2022-10-03T18:48:41;13.70;99.90
4962;DHT22;2496;52.468;13.342;2022-10-03T18:51:14;13.70;99.90
4962;DHT22;2496;52.468;13.342;2022-10-03T18:53:49;13.70;99.90
4962;DHT22;2496;52.468;13.342;2022-10-03T18:56:22;13.70;99.90
4962;DHT22;2496;52.468;13.342;2022-10-03T19:01:48;13.70;99.90
4962;DHT22;2496;52.468;13.342;2022-10-03T19:04:32;13.60;99.90
4962;DHT22;2496;52.468;13.342;2022-10-03T19:07:08;13.60;99.90
4962;DHT22;2496;52.468;13.342;2022-10-03T19:09:40;13.60;99.90
4962;DHT22;2496;52.468;13.342;2022-10-03T19:12:15;13.50;99.90
4962;DHT22;2496;52.468;13.342;2022-10-03T19:14:55;13.50;99.90
4962;DHT22;2496;52.468;13.342;2022-10-03T19:17:33;13.50;99.90
4962;DHT22;2496;52.468;13.342;2022-10-03T19:20:17;13.50;99.90
4962;DHT22;2496;52.468;13.342;2022-10-03T19:22:57;13.50;99.90
4962;DHT22;2496;52.468;13.342;2022-10-03T19:25:27;13.50;99.90
4962;DHT22;2496;52.468;13.342;2022-10-03T19:27:59;13.50;99.90
4962;DHT22;2496;52.468;13.342;2022-10-03T19:30:30;13.50;99.90
4962;DHT22;2496;52.468;13.342;2022-10-03T19:33:04;13.50;99.90
4962;DHT22;2496;52.468;13.342;2022-10-03T19:35:35;13.50;99.90
4962;DHT22;2496;52.468;13.342;2022-10-03T19:38:16;13.50;99.90
4962;DHT22;2496;52.468;13.342;2022-10-03T19:40:52;13.50;99.90
4962;DHT22;2496;52.468;13.342;2022-10-03T19:43:44;13.50;99.90
4962;DHT22;2496;52.468;13.342;2022-10-03T19:46:33;13.40;99.90
4962;DHT22;2496;52.468;13.342;2022-10-03T19:49:24;13.40;99.90